Time;durP1;ratioP1;P1;durP2;ratioP2;P2;SDS_P1;SDS_P2;PMS_P1;PMS_P2;Temp;Humidity;BMP_temperature;BMP_pressure;BME280_temperature;BME280_humidity;BME280_pressure;Samples;Min_cycle;Max_cycle;Signal;HPM_P1;HPM_P2
2023/04/21 00:01:02;;;;;;;40.90;27.57;;;6.90;47.50;;;;;;5107060;27;20460;-68
2023/04/21 00:03:32;;;;;;;43.20;27.30;;;6.90;47.50;;;;;;5104586;27;20877;-68
2023/04/21 00:05:59;;;;;;;46.40;28.90;;;7.00;47.50;;;;;;5105671;27;20998;-68
2023/04/21 00:08:27;;;;;;;38.90;26.40;;;7.00;47.50;;;;;;5098027;27;20495;-68
2023/04/21 00:10:54;;;;;;;39.47;28.00;;;7.00;47.40;;;;;;5101918;27;20491;-68
2023/04/21 00:13:20;;;;;;;44.43;28.77;;;7.00;47.30;;;;;;5106281;27;20451;-68
2023/04/21 00:15:47;;;;;;;43.03;26.60;;;7.00;47.20;;;;;;5103095;27;20459;-68
2023/04/21 00:18:14;;;;;;;38.20;26.70;;;7.00;47.30;;;;;;5100597;27;20962;-68
2023/04/21 00:20:41;;;;;;;61.47;25.00;;;7.00;47.40;;;;;;5108783;27;20487;-68
2023/04/21 00:23:09;;;;;;;48.70;26.30;;;7.00;47.50;;;;;;5105009;27;20546;-68
2023/04/21 00:25:38;;;;;;;52.70;24.27;;;6.90;47.60;;;;;;5097484;27;20989;-68
2023/04/21 00:28:04;;;;;;;68.00;25.90;;;6.90;47.60;;;;;;5107466;27;20977;-69
2023/04/21 00:30:31;;;;;;;49.50;26.13;;;6.90;47.60;;;;;;5099686;28;20468;-68
2023/04/21 00:32:58;;;;;;;51.73;26.53;;;7.00;47.70;;;;;;5106313;27;20468;-68
2023/04/21 00:35:25;;;;;;;86.67;28.37;;;7.00;47.50;;;;;;5106997;27;20467;-68
2023/04/21 00:37:51;;;;;;;42.10;23.30;;;7.00;47.60;;;;;;5105312;27;20463;-68
2023/04/21 00:40:19;;;;;;;45.70;26.17;;;6.90;47.70;;;;;;5105620;27;20868;-68
2023/04/21 00:42:47;;;;;;;64.00;24.87;;;6.90;47.70;;;;;;5106747;27;20459;-68
2023/04/21 00:45:14;;;;;;;108.47;27.20;;;6.90;47.90;;;;;;5108900;27;20813;-68
2023/04/21 00:47:41;;;;;;;77.60;25.90;;;6.80;48.00;;;;;;5100961;28;20924;-69
2023/04/21 00:50:09;;;;;;;48.00;24.63;;;6.80;48.40;;;;;;5099447;27;20474;-68
2023/04/21 00:52:36;;;;;;;60.07;25.27;;;6.70;48.60;;;;;;5098487;27;20467;-68
2023/04/21 00:55:04;;;;;;;34.73;23.63;;;6.70;48.90;;;;;;5105559;28;20470;-69
2023/04/21 00:57:32;;;;;;;111.10;26.57;;;6.70;49.00;;;;;;5109214;27;20455;-68
2023/04/21 01:00:00;;;;;;;52.63;25.00;;;6.70;49.10;;;;;;5106556;27;20558;-68
2023/04/21 01:02:27;;;;;;;31.53;21.10;;;6.60;49.10;;;;;;5108680;27;20467;-68
2023/04/21 01:04:54;;;;;;;32.27;22.73;;;6.70;49.00;;;;;;5105790;27;20475;-68
2023/04/21 01:07:20;;;;;;;40.60;22.20;;;6.70;49.00;;;;;;5103797;27;20462;-68
2023/04/21 01:09:47;;;;;;;34.30;23.50;;;6.70;48.90;;;;;;5102518;27;20490;-68
2023/04/21 01:12:14;;;;;;;32.97;22.73;;;6.70;48.90;;;;;;5108131;28;20463;-68
2023/04/21 01:14:41;;;;;;;30.10;21.50;;;6.70;48.80;;;;;;5110471;27;20455;-69
2023/04/21 01:17:09;;;;;;;29.53;20.83;;;6.80;48.60;;;;;;5097459;27;20807;-68
2023/04/21 01:19:40;;;;;;;26.83;19.50;;;6.80;48.60;;;;;;5090656;27;20819;-68
2023/04/21 01:22:09;;;;;;;27.23;19.63;;;6.80;48.40;;;;;;5102740;27;21090;-68
2023/04/21 01:24:38;;;;;;;27.83;20.37;;;6.90;48.30;;;;;;5100867;27;20819;-68
2023/04/21 01:27:10;;;;;;;31.30;21.50;;;6.90;48.20;;;;;;5099986;28;20815;-68
2023/04/21 01:29:37;;;;;;;30.53;21.53;;;6.90;48.20;;;;;;5104952;27;20490;-68
2023/04/21 01:32:06;;;;;;;32.23;21.97;;;7.00;47.90;;;;;;5103356;27;20468;-68
2023/04/21 01:34:32;;;;;;;27.43;20.67;;;7.00;47.70;;;;;;5102438;27;20462;-68
2023/04/21 01:36:59;;;;;;;31.10;21.20;;;7.00;47.70;;;;;;5107317;28;20508;-68
2023/04/21 01:39:27;;;;;;;29.73;21.53;;;7.00;47.60;;;;;;5093885;28;20483;-68
2023/04/21 01:41:56;;;;;;;40.50;22.73;;;7.00;47.50;;;;;;5103546;27;20501;-69
2023/04/21 01:44:23;;;;;;;53.60;22.00;;;7.00;47.50;;;;;;5102507;27;21141;-68
2023/04/21 01:46:50;;;;;;;30.77;21.40;;;6.90;47.50;;;;;;5097944;27;20895;-68
2023/04/21 01:49:17;;;;;;;32.30;21.90;;;6.90;47.60;;;;;;5096757;27;20511;-68
2023/04/21 01:51:44;;;;;;;79.70;23.60;;;6.90;47.50;;;;;;5094922;28;20829;-68
2023/04/21 01:54:11;;;;;;;221.10;30.13;;;6.90;47.60;;;;;;5097209;28;20475;-68
2023/04/21 01:56:39;;;;;;;54.33;22.30;;;6.80;47.80;;;;;;5097391;27;20462;-68
2023/04/21 01:59:06;;;;;;;50.57;22.10;;;6.80;48.10;;;;;;5093268;27;20475;-68
2023/04/21 02:01:32;;;;;;;187.00;28.20;;;6.70;48.20;;;;;;5100315;28;20493;-69
2023/04/21 02:03:59;;;;;;;115.00;25.97;;;6.70;48.40;;;;;;5095673;27;20463;-68
2023/04/21 02:06:26;;;;;;;153.80;27.80;;;6.60;48.40;;;;;;5096606;28;20490;-68
2023/04/21 02:08:52;;;;;;;312.50;33.00;;;6.60;48.50;;;;;;5099339;27;20510;-68
2023/04/21 02:11:19;;;;;;;51.23;23.83;;;6.50;48.90;;;;;;5104535;28;20479;-68
2023/04/21 02:13:47;;;;;;;222.83;30.77;;;6.50;49.10;;;;;;5096805;27;20456;-68
2023/04/21 02:16:14;;;;;;;229.30;32.40;;;6.50;49.20;;;;;;5105447;27;21002;-68
2023/04/21 02:18:41;;;;;;;70.57;26.27;;;6.40;49.40;;;;;;5095979;28;20868;-68
2023/04/21 02:21:07;;;;;;;211.23;30.97;;;6.40;49.40;;;;;;5097655;28;20992;-68
2023/04/21 02:23:34;;;;;;;243.43;30.93;;;6.40;49.50;;;;;;5104259;27;20464;-68
2023/04/21 02:26:01;;;;;;;72.67;25.23;;;6.40;49.70;;;;;;5099277;28;20487;-68
2023/04/21 02:28:27;;;;;;;152.03;29.43;;;6.40;49.70;;;;;;5099799;28;20462;-68
2023/04/21 02:30:55;;;;;;;90.90;26.97;;;6.40;49.60;;;;;;5087960;27;20863;-68
2023/04/21 02:33:22;;;;;;;148.20;27.07;;;6.40;49.80;;;;;;5096402;28;20489;-68
2023/04/21 02:35:49;;;;;;;152.63;26.13;;;6.40;49.70;;;;;;5100496;28;20463;-68
2023/04/21 02:38:16;;;;;;;136.33;28.00;;;6.40;49.70;;;;;;5104895;28;20490;-68
2023/04/21 02:40:42;;;;;;;188.67;28.43;;;6.30;50.20;;;;;;5102369;28;20479;-68
2023/04/21 02:43:10;;;;;;;120.63;25.73;;;6.20;50.10;;;;;;5103138;28;20459;-68
2023/04/21 02:45:37;;;;;;;191.90;27.33;;;6.20;50.30;;;;;;5106182;28;20472;-68
2023/04/21 02:48:06;;;;;;;235.07;30.57;;;6.20;50.30;;;;;;5098539;28;20468;-68
2023/04/21 02:50:32;;;;;;;128.00;25.30;;;6.20;50.30;;;;;;5102510;28;20494;-68
2023/04/21 02:52:59;;;;;;;119.37;25.70;;;6.20;50.30;;;;;;5100847;28;21386;-68
2023/04/21 02:55:26;;;;;;;50.17;24.70;;;6.10;50.30;;;;;;5102136;28;20475;-68
2023/04/21 02:57:53;;;;;;;123.70;26.40;;;6.20;50.40;;;;;;5107759;28;20809;-68
2023/04/21 03:00:19;;;;;;;60.07;24.23;;;6.20;50.30;;;;;;5096789;28;20482;-68
2023/04/21 03:02:46;;;;;;;106.53;24.53;;;6.20;50.20;;;;;;5099827;28;20564;-68
2023/04/21 03:05:14;;;;;;;141.80;25.20;;;6.30;50.80;;;;;;5106900;27;20936;-68
2023/04/21 03:07:41;;;;;;;104.17;24.60;;;6.30;50.10;;;;;;5104348;27;20959;-69
2023/04/21 03:10:08;;;;;;;114.20;26.90;;;6.30;49.90;;;;;;5104067;27;20963;-68
2023/04/21 03:12:35;;;;;;;56.23;23.70;;;6.30;49.80;;;;;;5102628;27;20482;-68
2023/04/21 03:15:01;;;;;;;60.03;24.10;;;6.30;49.70;;;;;;5103652;27;20479;-68
2023/04/21 03:17:28;;;;;;;111.20;25.77;;;6.30;49.70;;;;;;5100367;27;20463;-68
2023/04/21 03:19:55;;;;;;;113.73;26.40;;;6.40;49.60;;;;;;5102302;27;20493;-68
2023/04/21 03:22:23;;;;;;;96.07;22.50;;;6.40;49.60;;;;;;5105750;27;20547;-68
2023/04/21 03:24:50;;;;;;;46.80;21.87;;;6.40;49.40;;;;;;5103862;27;20460;-68
2023/04/21 03:27:16;;;;;;;50.77;21.23;;;6.40;49.40;;;;;;5110291;27;20471;-68
2023/04/21 03:29:43;;;;;;;90.77;22.63;;;6.40;49.40;;;;;;5106711;27;20470;-68
2023/04/21 03:32:10;;;;;;;58.20;22.60;;;6.40;49.20;;;;;;5102937;27;20867;-68
2023/04/21 03:34:36;;;;;;;45.20;22.40;;;6.40;49.20;;;;;;5108767;27;20459;-68
2023/04/21 03:37:03;;;;;;;55.87;21.73;;;6.40;49.10;;;;;;5107513;27;20465;-68
2023/04/21 03:39:31;;;;;;;55.33;21.93;;;6.40;49.00;;;;;;5101523;27;20487;-68
2023/04/21 03:41:58;;;;;;;45.87;20.57;;;6.30;49.10;;;;;;5102117;27;20964;-68
2023/04/21 03:44:27;;;;;;;98.70;27.80;;;6.30;49.00;;;;;;5100431;27;20725;-68
2023/04/21 03:46:54;;;;;;;65.00;22.03;;;6.30;49.10;;;;;;5097457;28;20479;-68
2023/04/21 03:49:20;;;;;;;62.20;21.40;;;6.30;49.20;;;;;;5107333;27;20478;-68
2023/04/21 03:51:47;;;;;;;100.57;23.13;;;6.30;49.10;;;;;;5100575;27;20464;-68
2023/04/21 03:54:14;;;;;;;39.10;21.00;;;6.30;49.10;;;;;;5102975;27;20933;-68
2023/04/21 03:56:42;;;;;;;48.27;21.80;;;6.30;49.20;;;;;;5101388;27;20455;-68
2023/04/21 03:59:09;;;;;;;51.83;22.17;;;6.30;49.30;;;;;;5107643;27;20481;-68
2023/04/21 04:01:35;;;;;;;65.17;22.03;;;6.30;49.20;;;;;;5097081;27;20479;-68
2023/04/21 04:04:02;;;;;;;68.60;23.10;;;6.30;49.30;;;;;;5100869;27;20463;-69
2023/04/21 04:06:29;;;;;;;48.07;20.87;;;6.30;49.40;;;;;;5096735;27;20568;-68
2023/04/21 04:08:55;;;;;;;46.97;22.20;;;6.30;49.20;;;;;;5092847;27;20487;-68
2023/04/21 04:11:22;;;;;;;61.93;21.57;;;6.30;49.20;;;;;;5097688;27;20458;-68
2023/04/21 04:13:50;;;;;;;138.83;23.20;;;6.30;49.20;;;;;;5101791;27;20456;-70
2023/04/21 04:16:17;;;;;;;66.20;23.50;;;6.30;49.10;;;;;;5096723;27;20459;-70
2023/04/21 04:18:44;;;;;;;38.37;18.00;;;6.20;49.00;;;;;;5098285;27;20458;-71
2023/04/21 04:21:11;;;;;;;71.03;21.27;;;6.20;49.00;;;;;;5095316;27;20460;-71
2023/04/21 04:23:37;;;;;;;52.90;19.10;;;6.20;49.10;;;;;;5096441;27;20470;-71
2023/04/21 04:26:05;;;;;;;37.97;17.20;;;6.10;49.00;;;;;;5101121;27;20480;-71
2023/04/21 04:28:32;;;;;;;167.93;24.40;;;6.00;49.10;;;;;;5103151;27;20468;-71
2023/04/21 04:31:01;;;;;;;52.60;17.73;;;6.00;49.20;;;;;;5102590;27;21078;-69
2023/04/21 04:33:28;;;;;;;56.73;18.87;;;6.00;49.20;;;;;;5096155;27;20486;-71
2023/04/21 04:35:57;;;;;;;36.40;17.87;;;6.00;49.20;;;;;;5097860;28;20467;-69
2023/04/21 04:38:23;;;;;;;76.43;19.10;;;6.00;49.20;;;;;;5103288;27;20463;-70
2023/04/21 04:40:54;;;;;;;43.20;17.73;;;6.00;49.20;;;;;;5100486;27;20847;-72
2023/04/21 04:43:20;;;;;;;59.53;18.83;;;6.00;49.10;;;;;;5101428;28;20462;-70
2023/04/21 04:45:47;;;;;;;41.13;17.73;;;6.00;49.10;;;;;;5084483;27;21025;-68
2023/04/21 04:48:16;;;;;;;38.47;18.33;;;6.10;49.20;;;;;;5084523;27;20464;-69
2023/04/21 04:50:42;;;;;;;41.20;18.40;;;6.10;49.20;;;;;;5089548;27;20852;-69
2023/04/21 04:53:09;;;;;;;37.60;17.70;;;6.10;49.10;;;;;;5088581;28;20460;-68
2023/04/21 04:55:36;;;;;;;32.60;19.20;;;6.10;49.10;;;;;;5100080;27;20463;-69
2023/04/21 04:58:03;;;;;;;60.80;20.10;;;6.10;49.10;;;;;;5098057;27;20459;-68
2023/04/21 05:00:30;;;;;;;31.00;19.70;;;6.20;49.10;;;;;;5094361;27;20569;-70
2023/04/21 05:02:57;;;;;;;75.53;20.77;;;6.20;49.00;;;;;;5084406;27;20532;-68
2023/04/21 05:05:25;;;;;;;94.50;19.50;;;6.30;48.90;;;;;;5094864;27;20479;-69
2023/04/21 05:07:52;;;;;;;31.40;17.87;;;6.20;48.70;;;;;;5093407;27;20825;-68
2023/04/21 05:10:19;;;;;;;42.77;19.87;;;6.20;48.70;;;;;;5095353;27;20479;-68
2023/04/21 05:12:46;;;;;;;29.63;18.40;;;6.20;48.80;;;;;;5098555;27;20478;-70
2023/04/21 05:15:12;;;;;;;27.50;17.70;;;6.20;48.90;;;;;;5083117;28;20508;-68
2023/04/21 05:17:39;;;;;;;62.73;20.77;;;6.30;48.90;;;;;;5095136;27;20466;-69
2023/04/21 05:20:07;;;;;;;57.37;18.20;;;6.30;48.90;;;;;;5082578;27;20514;-69
2023/04/21 05:22:38;;;;;;;55.20;18.47;;;6.30;48.70;;;;;;5089342;27;20468;-67
2023/04/21 05:25:05;;;;;;;44.93;18.20;;;6.30;48.50;;;;;;5096882;27;21017;-71
2023/04/21 05:27:32;;;;;;;27.77;16.60;;;6.30;48.80;;;;;;5095255;27;20471;-69
2023/04/21 05:29:59;;;;;;;30.17;19.27;;;6.30;48.70;;;;;;5089786;27;20484;-67
2023/04/21 05:32:26;;;;;;;30.87;18.70;;;6.40;48.70;;;;;;5089883;27;20472;-67
2023/04/21 05:34:53;;;;;;;28.10;17.37;;;6.50;48.70;;;;;;5093178;28;20534;-68
2023/04/21 05:37:20;;;;;;;22.93;15.80;;;6.50;48.80;;;;;;5101793;27;20451;-69
2023/04/21 05:39:48;;;;;;;27.23;17.20;;;6.60;48.70;;;;;;5090004;27;20479;-68
2023/04/21 05:42:14;;;;;;;28.80;18.03;;;6.70;48.70;;;;;;5093936;28;20463;-68
2023/04/21 05:44:41;;;;;;;25.20;17.10;;;6.70;48.70;;;;;;5091786;27;20463;-69
2023/04/21 05:47:08;;;;;;;26.93;18.30;;;6.80;48.60;;;;;;5086682;27;20488;-69
2023/04/21 05:49:34;;;;;;;34.53;16.70;;;6.80;49.00;;;;;;5089017;28;21082;-69
2023/04/21 05:52:01;;;;;;;25.40;17.57;;;6.90;48.00;;;;;;5086940;27;20854;-69
2023/04/21 05:54:28;;;;;;;31.30;19.13;;;7.00;48.20;;;;;;5091766;27;20468;-69
2023/04/21 05:56:56;;;;;;;39.80;22.90;;;7.00;48.00;;;;;;5089159;28;20977;-69
2023/04/21 05:59:25;;;;;;;34.00;22.40;;;7.10;48.00;;;;;;5099860;28;20492;-69
2023/04/21 06:01:51;;;;;;;36.50;23.60;;;7.10;47.90;;;;;;5095408;28;20471;-69
2023/04/21 06:04:18;;;;;;;32.00;21.53;;;7.20;47.90;;;;;;5080804;27;20514;-68
2023/04/21 06:06:45;;;;;;;27.80;19.73;;;7.20;47.80;;;;;;5093099;27;20488;-68
2023/04/21 06:09:14;;;;;;;26.03;17.90;;;7.30;47.70;;;;;;5093793;27;20490;-71
2023/04/21 06:11:41;;;;;;;26.70;17.87;;;7.40;47.60;;;;;;5088036;28;20467;-67
2023/04/21 06:14:09;;;;;;;25.87;16.70;;;7.40;47.30;;;;;;5098263;28;20463;-69
2023/04/21 06:16:35;;;;;;;26.30;17.90;;;7.50;47.30;;;;;;5098519;28;21054;-70
2023/04/21 06:19:02;;;;;;;22.67;15.70;;;7.60;47.00;;;;;;5100694;28;20480;-67
2023/04/21 06:21:29;;;;;;;19.80;14.67;;;7.70;46.80;;;;;;5093707;28;20468;-67
2023/04/21 06:23:56;;;;;;;20.50;14.07;;;7.70;46.50;;;;;;5094804;28;20587;-67
2023/04/21 06:26:23;;;;;;;23.27;17.90;;;7.70;46.20;;;;;;5098967;28;21030;-68
2023/04/21 06:28:49;;;;;;;25.57;16.93;;;7.70;46.10;;;;;;5082913;28;20518;-68
2023/04/21 06:31:18;;;;;;;26.00;16.70;;;7.70;45.80;;;;;;5096127;28;20478;-68
2023/04/21 06:33:45;;;;;;;23.70;16.30;;;7.80;45.60;;;;;;5091683;28;20925;-68
2023/04/21 06:36:11;;;;;;;23.90;17.43;;;7.80;45.70;;;;;;5091790;28;20464;-68
2023/04/21 06:38:40;;;;;;;21.97;16.30;;;7.80;45.70;;;;;;5094104;28;20463;-68
2023/04/21 06:41:07;;;;;;;23.83;16.43;;;7.80;45.40;;;;;;5098536;28;20559;-67
2023/04/21 06:43:33;;;;;;;25.20;16.77;;;7.90;45.50;;;;;;5099492;28;20459;-68
2023/04/21 06:46:00;;;;;;;23.70;16.47;;;8.00;45.60;;;;;;5089920;28;20467;-74
2023/04/21 06:48:29;;;;;;;23.77;16.37;;;8.10;45.10;;;;;;5093190;28;20609;-69
2023/04/21 06:50:55;;;;;;;24.00;17.20;;;8.20;44.90;;;;;;5086646;28;20496;-70
2023/04/21 06:53:22;;;;;;;26.57;17.20;;;8.30;44.00;;;;;;5097572;28;20827;-70
2023/04/21 06:55:49;;;;;;;27.10;19.23;;;8.30;44.30;;;;;;5098031;28;20463;-71
2023/04/21 06:58:16;;;;;;;25.50;17.10;;;8.50;44.10;;;;;;5099139;28;20487;-70
2023/04/21 07:00:42;;;;;;;24.57;17.70;;;8.50;44.30;;;;;;5094244;28;20456;-71
2023/04/21 07:03:09;;;;;;;26.40;18.03;;;8.50;44.40;;;;;;5098134;28;20948;-70
2023/04/21 07:05:37;;;;;;;26.90;18.33;;;8.60;44.30;;;;;;5099255;28;20463;-70
2023/04/21 07:08:04;;;;;;;23.60;16.60;;;8.60;44.10;;;;;;5101171;28;20482;-70
2023/04/21 07:10:30;;;;;;;24.40;17.80;;;8.70;44.10;;;;;;5093739;28;20480;-70
2023/04/21 07:12:57;;;;;;;23.30;17.10;;;8.70;43.70;;;;;;5099913;28;20467;-71
2023/04/21 07:15:24;;;;;;;25.70;18.70;;;8.80;43.70;;;;;;5099666;28;20465;-71
2023/04/21 07:17:51;;;;;;;22.23;17.33;;;8.70;43.20;;;;;;5093405;28;20483;-70
2023/04/21 07:20:18;;;;;;;23.93;16.80;;;8.70;43.30;;;;;;5088521;28;20545;-71
2023/04/21 07:22:46;;;;;;;22.33;16.40;;;8.80;43.20;;;;;;5086793;28;20571;-70
2023/04/21 07:25:13;;;;;;;26.33;17.87;;;8.70;43.20;;;;;;5095965;28;20468;-71
2023/04/21 07:27:39;;;;;;;26.90;18.50;;;8.80;43.30;;;;;;5093169;28;20480;-70
2023/04/21 07:30:07;;;;;;;27.23;18.83;;;8.80;43.40;;;;;;5091872;28;20504;-71
2023/04/21 07:32:36;;;;;;;25.17;17.87;;;8.80;43.40;;;;;;5096916;28;20482;-67
2023/04/21 07:35:02;;;;;;;22.73;17.13;;;8.90;43.30;;;;;;5092893;28;20469;-68
2023/04/21 07:37:29;;;;;;;25.07;17.80;;;9.00;43.40;;;;;;5096199;28;20476;-67
2023/04/21 07:39:57;;;;;;;22.43;16.63;;;9.40;43.80;;;;;;5100939;28;20486;-66
2023/04/21 07:42:25;;;;;;;22.70;16.13;;;9.70;43.90;;;;;;5099390;28;20470;-66
2023/04/21 07:44:53;;;;;;;21.17;16.20;;;10.00;43.30;;;;;;5094938;28;20897;-66
2023/04/21 07:47:20;;;;;;;21.20;16.37;;;10.20;41.70;;;;;;5094686;28;20504;-67
2023/04/21 07:49:47;;;;;;;21.03;15.60;;;10.30;41.10;;;;;;5094710;28;20948;-67
2023/04/21 07:52:14;;;;;;;20.17;15.70;;;10.50;40.10;;;;;;5099284;28;20470;-66
2023/04/21 07:54:40;;;;;;;21.20;15.60;;;10.70;39.60;;;;;;5098320;27;20460;-67
2023/04/21 07:57:08;;;;;;;19.60;15.13;;;10.90;38.60;;;;;;5101747;28;20938;-66
2023/04/21 07:59:35;;;;;;;22.10;15.47;;;11.00;37.90;;;;;;5096191;27;20484;-66
2023/04/21 08:02:02;;;;;;;19.33;14.60;;;11.20;38.70;;;;;;5102943;28;20978;-66
2023/04/21 08:04:29;;;;;;;20.67;15.20;;;11.60;38.30;;;;;;5094877;28;20466;-67
2023/04/21 08:06:55;;;;;;;20.07;14.47;;;11.80;37.60;;;;;;5099305;28;20483;-66
2023/04/21 08:09:22;;;;;;;22.07;16.53;;;11.90;37.30;;;;;;5096789;28;20482;-67
2023/04/21 08:11:49;;;;;;;22.77;16.83;;;11.80;36.30;;;;;;5101792;28;20459;-66
2023/04/21 08:14:17;;;;;;;22.90;15.83;;;11.60;36.00;;;;;;5097172;28;20463;-66
2023/04/21 08:16:44;;;;;;;23.60;17.80;;;11.40;36.10;;;;;;5101068;27;20459;-66
2023/04/21 08:19:10;;;;;;;22.03;16.50;;;11.30;36.60;;;;;;5100107;27;20480;-67
2023/04/21 08:21:37;;;;;;;23.90;17.23;;;11.20;37.30;;;;;;5097990;27;20468;-66
2023/04/21 08:24:04;;;;;;;22.93;17.17;;;10.90;36.40;;;;;;5096099;28;20463;-66
2023/04/21 08:26:32;;;;;;;23.83;17.60;;;10.80;37.20;;;;;;5094623;28;20472;-66
2023/04/21 08:29:00;;;;;;;21.40;15.77;;;10.80;37.50;;;;;;5101900;27;20522;-66
2023/04/21 08:31:28;;;;;;;23.80;17.57;;;10.80;37.60;;;;;;5100215;28;20504;-67
2023/04/21 08:33:54;;;;;;;22.37;16.40;;;10.80;37.70;;;;;;5096872;28;20494;-66
2023/04/21 08:36:21;;;;;;;21.30;15.43;;;10.90;37.50;;;;;;5101864;27;20463;-67
2023/04/21 08:38:48;;;;;;;19.93;15.00;;;11.00;37.40;;;;;;5099087;28;20975;-66
2023/04/21 08:41:14;;;;;;;20.47;14.17;;;11.60;37.40;;;;;;5094203;28;20463;-67
2023/04/21 08:43:41;;;;;;;20.37;15.00;;;12.00;35.00;;;;;;5087365;28;20483;-67
2023/04/21 08:46:09;;;;;;;19.27;14.23;;;12.00;35.20;;;;;;5101895;28;20987;-66
2023/04/21 08:48:38;;;;;;;19.63;15.10;;;12.40;34.90;;;;;;5102957;28;20867;-67
2023/04/21 08:51:08;;;;;;;21.37;14.70;;;12.70;33.60;;;;;;5094165;28;20943;-66
2023/04/21 08:53:35;;;;;;;21.80;15.60;;;12.70;33.60;;;;;;5098967;28;20479;-66
2023/04/21 08:56:02;;;;;;;20.10;15.17;;;12.90;33.90;;;;;;5100850;28;20478;-66
2023/04/21 08:58:29;;;;;;;20.07;15.40;;;13.00;33.40;;;;;;5090029;28;20456;-69
2023/04/21 09:00:56;;;;;;;21.37;15.97;;;13.20;33.80;;;;;;5092391;28;20475;-68
2023/04/21 09:03:24;;;;;;;20.70;16.73;;;13.40;33.40;;;;;;5089558;28;20543;-69
2023/04/21 09:05:59;;;;;;;20.70;15.67;;;13.70;33.30;;;;;;5088628;28;20464;-69
2023/04/21 09:08:28;;;;;;;18.80;15.33;;;13.90;32.80;;;;;;5096076;28;20530;-69
2023/04/21 09:10:56;;;;;;;19.90;15.70;;;13.90;31.00;;;;;;5092208;28;20526;-69
2023/04/21 09:13:29;;;;;;;22.77;16.87;;;13.80;31.30;;;;;;5102300;27;20455;-69
2023/04/21 09:15:56;;;;;;;19.53;15.70;;;13.90;31.80;;;;;;5091660;27;20459;-69
2023/04/21 09:18:25;;;;;;;18.70;14.70;;;14.00;31.80;;;;;;5088985;27;20456;-69
2023/04/21 09:21:04;;;;;;;20.40;16.27;;;14.10;31.30;;;;;;5084491;28;20571;-69
2023/04/21 09:23:38;;;;;;;21.47;15.43;;;14.20;31.00;;;;;;5098412;28;20451;-70
2023/04/21 09:26:05;;;;;;;21.70;16.77;;;14.40;30.90;;;;;;5094723;28;20986;-69
2023/04/21 09:28:32;;;;;;;17.00;14.17;;;14.60;30.50;;;;;;5097901;28;20479;-70
2023/04/21 09:30:59;;;;;;;20.10;15.97;;;14.80;29.70;;;;;;5101754;28;21068;-70
2023/04/21 09:33:25;;;;;;;18.80;15.10;;;15.00;29.60;;;;;;5096408;28;20459;-69
2023/04/21 09:35:52;;;;;;;19.33;14.97;;;16.00;29.80;;;;;;5100124;28;20471;-69
2023/04/21 09:38:22;;;;;;;18.90;15.23;;;18.20;25.30;;;;;;5098015;28;20459;-69
2023/04/21 09:40:58;;;;;;;16.47;14.30;;;19.40;20.20;;;;;;5106741;28;20479;-69
2023/04/21 09:43:24;;;;;;;16.60;13.70;;;21.20;15.40;;;;;;5097210;28;20494;-70
2023/04/21 09:45:52;;;;;;;16.73;14.37;;;21.40;12.80;;;;;;5094610;28;20941;-70
2023/04/21 09:48:20;;;;;;;16.53;14.83;;;20.60;12.60;;;;;;5096516;28;20845;-70
2023/04/21 09:50:47;;;;;;;19.13;13.73;;;19.70;13.70;;;;;;5099418;28;20490;-70
2023/04/21 09:53:17;;;;;;;17.90;15.20;;;19.10;15.70;;;;;;5098739;28;20471;-71
2023/04/21 09:55:47;;;;;;;17.90;14.87;;;18.60;16.80;;;;;;5099716;28;20513;-71
2023/04/21 09:58:19;;;;;;;16.07;13.97;;;18.40;17.10;;;;;;5100737;28;20487;-71
2023/04/21 10:00:46;;;;;;;16.27;13.57;;;18.30;17.30;;;;;;5098157;28;20507;-70
2023/04/21 10:03:17;;;;;;;16.03;14.33;;;18.60;17.50;;;;;;5097480;27;20456;-70
2023/04/21 10:05:44;;;;;;;15.40;12.43;;;18.90;17.10;;;;;;5098760;28;20459;-71
2023/04/21 10:08:12;;;;;;;16.50;13.20;;;19.10;16.60;;;;;;5098645;28;20495;-71
2023/04/21 10:10:39;;;;;;;16.30;13.60;;;19.50;16.30;;;;;;5094526;27;20510;-71
2023/04/21 10:13:06;;;;;;;16.50;13.17;;;19.50;15.30;;;;;;5096166;28;20463;-71
2023/04/21 10:15:38;;;;;;;14.07;10.80;;;19.20;13.60;;;;;;5096769;28;20465;-71
2023/04/21 10:18:16;;;;;;;16.60;13.57;;;18.80;13.50;;;;;;5102909;28;20455;-70
2023/04/21 10:20:52;;;;;;;17.17;14.20;;;19.80;14.40;;;;;;5095428;28;20491;-70
2023/04/21 10:23:29;;;;;;;17.03;15.10;;;21.50;12.70;;;;;;5102265;28;20459;-71
2023/04/21 10:26:05;;;;;;;14.37;12.07;;;24.00;9.60;;;;;;5100181;28;20535;-71
2023/04/21 10:28:43;;;;;;;12.20;10.60;;;25.60;5.50;;;;;;5099327;28;20479;-71
2023/04/21 10:31:22;;;;;;;13.37;11.10;;;25.00;4.50;;;;;;5097272;28;20575;-71
2023/04/21 10:34:15;;;;;;;13.93;10.80;;;24.60;3.50;;;;;;5095957;28;21036;-71
2023/04/21 10:37:15;;;;;;;14.70;12.07;;;24.90;3.70;;;;;;5095536;28;20471;-71
2023/04/21 10:39:51;;;;;;;13.90;11.70;;;25.60;3.60;;;;;;5099012;28;20483;-71
2023/04/21 10:42:36;;;;;;;13.80;10.43;;;25.30;3.40;;;;;;5098840;28;20454;-70
2023/04/21 10:45:11;;;;;;;11.90;10.03;;;24.40;4.00;;;;;;5086245;28;20468;-70
2023/04/21 10:50:19;;;;;;;11.07;9.60;;;22.50;5.20;;;;;;5102956;28;20552;-67
2023/04/21 10:52:51;;;;;;;13.60;9.77;;;22.00;7.00;;;;;;5098588;28;20467;-67
2023/04/21 10:55:19;;;;;;;12.30;9.90;;;21.50;6.20;;;;;;5101512;28;21290;-68
2023/04/21 10:57:46;;;;;;;13.77;10.10;;;21.00;7.20;;;;;;5092813;28;20947;-67
2023/04/21 11:00:17;;;;;;;14.10;10.10;;;20.40;7.90;;;;;;5097702;28;21213;-70
2023/04/21 11:02:44;;;;;;;11.77;9.87;;;19.90;9.40;;;;;;5100384;28;20466;-68
2023/04/21 11:05:11;;;;;;;12.43;8.60;;;19.50;10.10;;;;;;5101592;28;20467;-69
2023/04/21 11:07:39;;;;;;;12.07;10.00;;;19.30;10.70;;;;;;5097378;28;20475;-69
2023/04/21 11:10:07;;;;;;;11.70;9.50;;;18.90;11.00;;;;;;5104769;28;20483;-69
2023/04/21 11:12:37;;;;;;;13.30;10.43;;;18.60;11.60;;;;;;5096407;28;20466;-69
2023/04/21 11:15:07;;;;;;;13.50;9.33;;;18.50;12.00;;;;;;5097117;28;20479;-69
2023/04/21 11:17:34;;;;;;;13.73;10.03;;;18.40;12.90;;;;;;5097911;28;20455;-69
2023/04/21 11:20:05;;;;;;;11.63;9.27;;;18.10;13.00;;;;;;5101191;28;20487;-69
2023/04/21 11:22:32;;;;;;;12.23;10.20;;;18.10;13.80;;;;;;5092151;28;20459;-68
2023/04/21 11:25:01;;;;;;;11.07;8.53;;;18.20;14.00;;;;;;5101357;28;20463;-69
2023/04/21 11:27:29;;;;;;;12.13;8.37;;;18.10;13.60;;;;;;5101746;28;20459;-69
2023/04/21 11:29:57;;;;;;;11.37;8.23;;;18.00;13.20;;;;;;5106126;28;20994;-69
2023/04/21 11:32:24;;;;;;;10.70;8.80;;;17.70;13.20;;;;;;5104027;28;20528;-69
2023/04/21 11:34:51;;;;;;;12.20;9.23;;;17.40;13.90;;;;;;5099879;28;21059;-69
2023/04/21 11:37:26;;;;;;;11.40;9.10;;;17.10;15.00;;;;;;5104564;28;20456;-69
2023/04/21 11:40:02;;;;;;;12.20;8.90;;;17.00;15.80;;;;;;5097866;28;20508;-69
2023/04/21 11:42:30;;;;;;;10.80;8.37;;;16.80;15.70;;;;;;5103119;28;20531;-69
2023/04/21 11:44:57;;;;;;;12.13;9.10;;;16.60;16.90;;;;;;5099381;27;21057;-69
2023/04/21 11:47:26;;;;;;;10.90;7.63;;;16.60;17.80;;;;;;5103502;28;20490;-69
2023/04/21 11:49:55;;;;;;;10.57;8.40;;;16.70;18.40;;;;;;5089504;28;21039;-69
2023/04/21 11:52:25;;;;;;;10.70;8.60;;;16.70;18.40;;;;;;5101122;28;20560;-69
2023/04/21 11:54:57;;;;;;;11.20;8.30;;;16.70;19.00;;;;;;5099174;28;24162;-69
2023/04/21 11:57:27;;;;;;;10.40;8.60;;;16.70;19.30;;;;;;5098062;28;20471;-69
2023/04/21 11:59:54;;;;;;;11.43;8.80;;;16.70;18.70;;;;;;5094243;28;20486;-69
2023/04/21 12:02:25;;;;;;;11.30;8.40;;;16.70;18.90;;;;;;5097861;28;20486;-69
2023/04/21 12:04:59;;;;;;;11.20;8.60;;;16.70;19.60;;;;;;5102763;28;20467;-70
2023/04/21 12:07:26;;;;;;;10.33;7.93;;;16.80;19.20;;;;;;5092080;28;23873;-69
2023/04/21 12:09:53;;;;;;;12.70;8.37;;;16.70;18.60;;;;;;5094303;28;20533;-71
2023/04/21 12:12:21;;;;;;;10.53;8.10;;;16.60;19.10;;;;;;5097143;28;20872;-69
2023/04/21 12:14:50;;;;;;;11.27;7.97;;;16.60;19.40;;;;;;5102148;28;20470;-69
2023/04/21 12:17:17;;;;;;;12.20;9.23;;;16.70;20.00;;;;;;5092530;28;20483;-69
2023/04/21 12:19:44;;;;;;;9.50;7.20;;;16.70;19.80;;;;;;5091963;28;20483;-69
2023/04/21 12:22:12;;;;;;;10.57;7.37;;;16.60;18.30;;;;;;5086962;28;20828;-70
2023/04/21 12:24:39;;;;;;;10.27;7.40;;;16.50;18.80;;;;;;5085994;28;20467;-69
2023/04/21 12:27:06;;;;;;;9.80;7.33;;;16.50;18.90;;;;;;5102265;28;20475;-70
2023/04/21 12:29:34;;;;;;;11.27;7.80;;;16.50;19.70;;;;;;5098648;28;20483;-70
2023/04/21 12:32:02;;;;;;;10.67;7.73;;;16.50;20.70;;;;;;5102997;28;20479;-69
2023/04/21 12:34:29;;;;;;;9.87;6.77;;;16.60;21.10;;;;;;5096349;28;20506;-69
2023/04/21 12:36:56;;;;;;;10.00;7.37;;;16.50;18.70;;;;;;5097485;28;20468;-69
2023/04/21 12:39:22;;;;;;;10.63;7.30;;;16.60;18.10;;;;;;5098076;28;20476;-69